Friday, May 25, 2018, 8:34 PM EDT
Back to Local

KMVL, Morrisville Stowe State Airport

Location: Morrisville, VT, United States Lat: 44.533
Local Time: 8:34 PM EDT ( 0:34 GMT) Lon: -72.617
Time Zone: US/Eastern Elev: 731 ft

Show me the last for .
Show Decoded

2018-05-25 19:54 METAR KMVL 252354Z AUTO VRB05KT 10SM -RA FEW060 OVC100 21/14 A2976 RMK AO2 RAB44
                 SLP077 P0000 60000 T02060144 10256 20206 53011 =
2018-05-25 18:54 METAR KMVL 252254Z AUTO 24004KT 10SM OVC060 23/12 A2974 RMK AO2 SLP068 T02330122
                 =
2018-05-25 17:54 METAR KMVL 252154Z AUTO 22007KT 190V250 10SM FEW060 24/13 A2973 RMK AO2 SLP064
                 T02390133 =
2018-05-25 16:54 METAR KMVL 252054Z AUTO 23007KT 200V270 10SM FEW060 SCT100 24/13 A2973 RMK AO2
                 SLP066 T02440133 58014 =
2018-05-25 15:54 METAR KMVL 251954Z AUTO 18003KT 10SM OVC055 21/16 A2975 RMK AO2 SLP075 T02110156
                 =
2018-05-25 14:54 METAR KMVL 251854Z AUTO 36003KT 10SM OVC065 21/16 A2976 RMK AO2 SLP077 T02110156
                 =
2018-05-25 13:54 METAR KMVL 251754Z AUTO 04005KT 10SM FEW060 OVC075 22/15 A2977 RMK AO2
                 RAB1659E11B36E45 SLP082 P0000 60000 T02220150 10267 20206 58016 =
2018-05-25 12:54 METAR KMVL 251654Z AUTO 29011G22KT 230V350 10SM BKN070 OVC110 25/11 A2980 RMK
                 AO2 SLP090 T02500111 =
2018-05-25 11:54 METAR KMVL 251554Z AUTO 25009G21KT 190V300 10SM CLR 26/11 A2980 RMK AO2 SLP092
                 T02610106 =
2018-05-25 10:54 METAR KMVL 251454Z AUTO 24011G21KT 200V300 10SM CLR 25/11 A2982 RMK AO2 SLP099
                 T02500111 58014 =
2018-05-25 09:54 METAR KMVL 251354Z AUTO 22015G20KT 10SM CLR 23/11 A2984 RMK AO2 SLP104 T02330106
                 =
2018-05-25 08:54 METAR KMVL 251254Z AUTO 22012G22KT 10SM BKN100 22/09 A2986 RMK AO2 SLP112
                 T02170094 =
2018-05-25 07:54 METAR KMVL 251154Z AUTO 22011G22KT 10SM BKN100 21/08 A2986 RMK AO2 SLP112
                 T02060083 10206 20067 58007 =
2018-05-25 06:54 METAR KMVL 251054Z AUTO 21012G18KT 10SM FEW100 19/08 A2988 RMK AO2 SLP116
                 T01940078 =
2018-05-25 05:54 METAR KMVL 250954Z AUTO 22009G17KT 10SM CLR 18/07 A2988 RMK AO2 SLP118 T01830072
                 =
2018-05-25 04:54 METAR KMVL 250854Z AUTO 19007KT 10SM CLR 14/07 A2988 RMK AO2 SLP119 T01390072
                 56012 =
2018-05-25 03:54 METAR KMVL 250754Z AUTO VRB05KT 10SM CLR 14/07 A2989 RMK AO2 SLP120 T01440067 =
2018-05-25 02:54 METAR KMVL 250654Z AUTO VRB05KT 10SM CLR 12/06 A2989 RMK AO2 SLP124 T01220061 =
2018-05-25 01:54 METAR KMVL 250554Z AUTO 22004KT 10SM CLR 07/06 A2992 RMK AO2 SLP133 T00720056
                 10150 20061 56023 =
2018-05-25 00:54 METAR KMVL 250454Z AUTO 00000KT 10SM CLR 07/06 A2994 RMK AO2 SLP141 T00720056
                 402220033 =
2018-05-24 23:54 METAR KMVL 250354Z AUTO 00000KT 10SM CLR 07/06 A2996 RMK AO2 SLP149 T00720056 =
2018-05-24 22:54 METAR KMVL 250254Z AUTO 00000KT 10SM CLR 08/06 A2999 RMK AO2 SLP158 T00830061
                 58008 =
2018-05-24 21:54 METAR KMVL 250154Z AUTO 00000KT 10SM CLR 09/06 A3001 RMK AO2 SLP166 T00940061 =
2018-05-24 20:54 METAR KMVL 250054Z AUTO 21003KT 10SM CLR 11/07 A3001 RMK AO2 SLP166 T01060072 =

Support USWX by starting your Amazon purchase here.